Time;durP1;ratioP1;P1;durP2;ratioP2;P2;SDS_P1;SDS_P2;PMS_P1;PMS_P2;Temp;Humidity;BMP_temperature;BMP_pressure;BME280_temperature;BME280_humidity;BME280_pressure;Samples;Min_cycle;Max_cycle;Signal;HPM_P1;HPM_P2
2023/10/06 00:03:08;;;;;;;8.50;2.60;;;14.30;99.90;;;;;;4964753;28;20055;-81
2023/10/06 00:05:39;;;;;;;9.05;2.58;;;14.30;99.90;;;;;;4965006;28;20047;-81
2023/10/06 00:08:15;;;;;;;8.73;2.53;;;14.30;99.90;;;;;;4984732;28;20043;-80
2023/10/06 00:10:44;;;;;;;8.32;2.60;;;14.30;99.90;;;;;;4982453;28;20078;-81
2023/10/06 00:13:12;;;;;;;9.88;2.92;;;14.30;99.90;;;;;;4981990;28;20039;-80
2023/10/06 00:15:38;;;;;;;8.10;2.70;;;14.30;99.90;;;;;;4970720;28;20546;-80
2023/10/06 00:18:09;;;;;;;11.77;3.03;;;14.30;99.90;;;;;;4987101;28;20038;-81
2023/10/06 00:20:39;;;;;;;10.20;2.65;;;14.30;99.90;;;;;;4968428;28;20114;-81
2023/10/06 00:23:07;;;;;;;8.20;2.50;;;14.30;99.90;;;;;;4983135;28;20541;-80
2023/10/06 00:25:35;;;;;;;7.70;2.63;;;14.30;99.90;;;;;;4950359;28;20062;-80
2023/10/06 00:28:03;;;;;;;10.02;2.92;;;14.30;99.90;;;;;;4963967;28;20312;-81
2023/10/06 00:30:31;;;;;;;8.27;2.70;;;14.30;99.90;;;;;;4976718;28;20051;-80
2023/10/06 00:32:57;;;;;;;8.23;2.65;;;14.30;99.90;;;;;;4964745;28;20429;-81
2023/10/06 00:35:30;;;;;;;8.00;2.60;;;14.40;99.90;;;;;;4964761;28;20039;-80
2023/10/06 00:38:04;;;;;;;9.68;2.60;;;14.40;99.90;;;;;;4978963;28;20047;-81
2023/10/06 00:40:30;;;;;;;8.27;2.70;;;14.40;99.90;;;;;;4951400;29;20126;-80
2023/10/06 00:43:00;;;;;;;8.75;2.70;;;14.30;99.90;;;;;;4933152;29;20083;-80
2023/10/06 00:45:30;;;;;;;10.05;3.30;;;14.30;99.90;;;;;;4981234;28;20641;-81
2023/10/06 00:47:56;;;;;;;9.85;2.63;;;14.30;99.90;;;;;;4978448;28;20050;-81
2023/10/06 00:50:23;;;;;;;8.27;3.13;;;14.30;99.90;;;;;;4976660;28;20054;-81
2023/10/06 00:52:50;;;;;;;11.27;2.83;;;14.30;99.90;;;;;;4958277;28;20044;-80
2023/10/06 00:55:17;;;;;;;9.43;2.65;;;14.30;99.90;;;;;;4977010;28;20043;-81
2023/10/06 00:57:52;;;;;;;8.93;2.75;;;14.30;99.90;;;;;;4975773;28;20043;-81
2023/10/06 01:00:22;;;;;;;10.27;2.85;;;14.30;99.90;;;;;;4991684;28;20054;-81
2023/10/06 01:02:49;;;;;;;7.80;2.70;;;14.30;99.90;;;;;;4957558;28;20449;-81
2023/10/06 01:05:16;;;;;;;8.07;2.50;;;14.30;99.90;;;;;;4962317;28;20381;-81
2023/10/06 01:07:45;;;;;;;8.73;2.85;;;14.30;99.90;;;;;;4980523;28;20762;-81
2023/10/06 01:10:17;;;;;;;9.75;2.67;;;14.40;99.90;;;;;;4974164;28;20039;-80
2023/10/06 01:12:50;;;;;;;8.13;2.73;;;14.30;99.90;;;;;;4975674;28;20039;-81
2023/10/06 01:15:20;;;;;;;;;;;14.40;99.90;;;;;;4961009;28;20306;-81
2023/10/06 01:17:46;;;;;;;8.48;2.42;;;14.30;99.90;;;;;;4976198;28;19919;-80
2023/10/06 01:23:22;;;;;;;6.25;2.25;;;14.30;99.90;;;;;;4938801;28;20051;-81
2023/10/06 01:25:53;;;;;;;9.00;2.60;;;14.30;99.90;;;;;;4925991;29;20043;-81
2023/10/06 01:28:19;;;;;;;8.45;2.90;;;14.30;99.90;;;;;;4945254;28;20078;-81
2023/10/06 01:30:45;;;;;;;8.00;2.65;;;14.30;99.90;;;;;;4945988;28;20438;-80
2023/10/06 01:33:11;;;;;;;10.45;3.13;;;14.30;99.90;;;;;;4960117;28;20039;-81
2023/10/06 01:35:42;;;;;;;8.90;2.97;;;14.30;99.90;;;;;;4958869;28;20123;-81
2023/10/06 01:38:22;;;;;;;9.80;2.83;;;14.30;99.90;;;;;;4975600;28;20118;-81
2023/10/06 01:40:51;;;;;;;7.38;2.67;;;14.30;99.90;;;;;;4956641;28;20417;-80
2023/10/06 01:43:22;;;;;;;11.70;3.30;;;14.30;99.90;;;;;;4974811;28;20047;-80
2023/10/06 01:45:49;;;;;;;8.38;3.00;;;14.30;99.90;;;;;;4975357;28;20098;-80
2023/10/06 01:50:50;;;;;;;9.02;3.35;;;14.30;99.90;;;;;;4978470;28;20058;-80
2023/10/06 01:53:20;;;;;;;9.45;3.33;;;14.30;99.90;;;;;;4975776;28;20039;-80
2023/10/06 01:55:49;;;;;;;8.18;3.08;;;14.30;99.90;;;;;;4975406;28;20039;-81
2023/10/06 01:58:15;;;;;;;9.20;3.20;;;14.30;99.90;;;;;;4976727;28;20039;-81
2023/10/06 02:00:41;;;;;;;9.43;3.40;;;14.30;99.90;;;;;;4959872;28;20036;-80
2023/10/06 02:03:10;;;;;;;10.38;3.63;;;14.30;99.90;;;;;;4960732;28;20062;-81
2023/10/06 02:05:40;;;;;;;10.77;3.63;;;14.30;99.90;;;;;;4977016;28;20137;-81
2023/10/06 02:08:06;;;;;;;10.60;3.72;;;14.30;99.90;;;;;;4965245;28;20050;-81
2023/10/06 02:10:32;;;;;;;10.68;3.60;;;14.30;99.90;;;;;;4981012;28;20035;-81
2023/10/06 02:12:58;;;;;;;12.90;4.20;;;14.30;99.90;;;;;;4979795;28;20035;-80
2023/10/06 02:15:24;;;;;;;11.38;3.80;;;14.30;99.90;;;;;;4980251;28;20047;-80
2023/10/06 02:17:50;;;;;;;9.48;3.63;;;14.40;99.90;;;;;;4963829;28;20049;-81
2023/10/06 02:22:52;;;;;;;11.15;3.95;;;14.40;99.90;;;;;;4949087;28;20059;-80
2023/10/06 02:25:22;;;;;;;9.57;4.10;;;14.40;99.90;;;;;;4953018;28;20047;-80
2023/10/06 02:27:50;;;;;;;11.18;3.97;;;14.40;99.90;;;;;;4984676;28;20517;-80
2023/10/06 02:30:19;;;;;;;10.98;3.80;;;14.40;99.90;;;;;;5000132;28;20129;-81
2023/10/06 02:32:48;;;;;;;11.75;4.07;;;14.40;99.90;;;;;;4984993;28;20047;-80
2023/10/06 02:35:17;;;;;;;10.40;4.03;;;14.40;99.90;;;;;;4967698;28;20039;-80
2023/10/06 02:37:46;;;;;;;10.73;4.03;;;14.40;99.90;;;;;;4961107;28;20153;-80
2023/10/06 02:40:12;;;;;;;11.00;3.95;;;14.40;99.90;;;;;;5002458;28;20035;-81
2023/10/06 02:42:51;;;;;;;10.32;3.90;;;14.50;99.90;;;;;;4984031;28;20039;-81
2023/10/06 02:45:20;;;;;;;9.88;4.10;;;14.50;99.90;;;;;;4947865;28;20062;-81
2023/10/06 02:47:51;;;;;;;11.27;3.72;;;14.40;99.90;;;;;;4998808;28;20176;-81
2023/10/06 02:50:19;;;;;;;9.43;3.78;;;14.50;99.90;;;;;;4950661;28;20047;-80
2023/10/06 02:52:46;;;;;;;9.10;3.70;;;14.40;99.90;;;;;;4985183;28;20267;-81
2023/10/06 02:55:18;;;;;;;8.70;3.65;;;14.40;99.90;;;;;;4967811;28;20039;-80
2023/10/06 02:57:50;;;;;;;10.55;4.20;;;14.40;99.90;;;;;;4980351;28;20062;-81
2023/10/06 03:02:55;;;;;;;10.40;4.25;;;14.40;99.90;;;;;;4982754;28;20043;-80
2023/10/06 03:05:32;;;;;;;11.35;3.70;;;14.40;99.90;;;;;;4966418;28;21827;-81
2023/10/06 03:08:00;;;;;;;10.93;3.92;;;14.40;99.90;;;;;;4950390;28;20528;-81
2023/10/06 03:10:30;;;;;;;10.68;3.75;;;14.40;99.90;;;;;;5000362;28;20402;-81
2023/10/06 03:12:57;;;;;;;8.85;3.47;;;14.40;99.90;;;;;;4982512;28;20050;-80
2023/10/06 03:15:34;;;;;;;9.75;4.03;;;14.40;99.90;;;;;;4982505;28;20114;-81
2023/10/06 03:17:59;;;;;;;9.05;3.72;;;14.40;99.90;;;;;;4983515;28;20498;-80
2023/10/06 03:20:29;;;;;;;10.05;4.20;;;14.40;99.90;;;;;;4951126;28;20141;-80
2023/10/06 03:22:56;;;;;;;9.70;3.80;;;14.40;99.90;;;;;;4966852;28;20054;-80
2023/10/06 03:25:22;;;;;;;10.20;3.88;;;14.40;99.90;;;;;;4968824;28;20051;-80
2023/10/06 03:27:52;;;;;;;9.93;3.95;;;14.40;99.90;;;;;;4948988;28;20778;-81
2023/10/06 03:30:26;;;;;;;9.90;4.07;;;14.40;99.90;;;;;;4950204;28;20174;-80
2023/10/06 03:32:53;;;;;;;10.43;4.32;;;14.40;99.90;;;;;;4948613;29;20524;-81
2023/10/06 03:35:23;;;;;;;10.07;4.25;;;14.40;99.90;;;;;;4980712;28;20086;-81
2023/10/06 03:37:53;;;;;;;9.98;4.03;;;14.40;99.90;;;;;;4982434;28;20058;-80
2023/10/06 03:43:13;;;;;;;10.75;4.35;;;14.40;99.90;;;;;;4940610;28;20122;-80
2023/10/06 03:45:47;;;;;;;9.63;4.22;;;14.40;99.90;;;;;;4995880;28;20063;-80
2023/10/06 03:48:13;;;;;;;9.45;4.20;;;14.40;99.90;;;;;;4983097;28;20051;-81
2023/10/06 03:50:41;;;;;;;11.15;4.53;;;14.40;99.90;;;;;;4981800;28;20046;-80
2023/10/06 03:53:08;;;;;;;11.13;4.60;;;14.40;99.90;;;;;;4983231;28;20114;-80
2023/10/06 03:55:39;;;;;;;12.65;5.20;;;14.40;99.90;;;;;;4983447;28;20057;-81
2023/10/06 03:58:07;;;;;;;10.30;4.20;;;14.40;99.90;;;;;;4965814;28;20049;-81
2023/10/06 04:00:54;;;;;;;11.13;4.80;;;14.40;99.90;;;;;;4998153;28;20046;-81
2023/10/06 04:03:19;;;;;;;10.35;4.50;;;14.40;99.90;;;;;;4950934;29;20501;-81
2023/10/06 04:05:49;;;;;;;11.32;4.85;;;14.40;99.90;;;;;;4967460;28;20194;-81
2023/10/06 04:08:16;;;;;;;11.82;4.63;;;14.40;99.90;;;;;;4982739;28;20193;-80
2023/10/06 04:10:53;;;;;;;11.82;4.78;;;14.40;99.90;;;;;;4950067;28;20577;-81
2023/10/06 04:13:20;;;;;;;10.93;4.78;;;14.40;99.90;;;;;;4967245;28;20055;-81
2023/10/06 04:15:50;;;;;;;11.93;5.00;;;14.40;99.90;;;;;;4982115;28;20105;-81
2023/10/06 04:18:18;;;;;;;11.43;4.57;;;14.40;99.90;;;;;;4981570;28;20040;-81
2023/10/06 04:20:45;;;;;;;15.40;5.35;;;14.40;99.90;;;;;;4947031;28;20050;-80
2023/10/06 04:23:12;;;;;;;12.23;5.07;;;14.40;99.90;;;;;;4965892;28;20070;-80
2023/10/06 04:25:39;;;;;;;11.52;4.60;;;14.40;99.90;;;;;;4997888;28;20050;-80
2023/10/06 04:28:11;;;;;;;9.95;4.63;;;14.40;99.90;;;;;;4995839;28;20093;-81
2023/10/06 04:30:38;;;;;;;10.93;4.53;;;14.40;99.90;;;;;;4932911;28;20047;-80
2023/10/06 04:33:09;;;;;;;11.55;5.10;;;14.40;99.90;;;;;;4997610;28;20051;-80
2023/10/06 04:35:40;;;;;;;11.07;4.75;;;14.30;99.90;;;;;;4979254;28;20035;-80
2023/10/06 04:38:06;;;;;;;11.95;4.85;;;14.40;99.90;;;;;;4979135;28;20397;-80
2023/10/06 04:40:32;;;;;;;11.38;4.70;;;14.30;99.90;;;;;;4982615;28;20101;-80
2023/10/06 04:42:59;;;;;;;11.25;4.75;;;14.30;99.90;;;;;;4946060;28;20047;-80
2023/10/06 04:45:25;;;;;;;12.45;4.55;;;14.30;99.90;;;;;;4947158;28;20059;-80
2023/10/06 04:47:55;;;;;;;11.15;4.68;;;14.30;99.90;;;;;;4993300;28;20047;-80
2023/10/06 04:50:21;;;;;;;10.88;4.90;;;14.30;99.90;;;;;;4956835;28;20520;-81
2023/10/06 04:52:47;;;;;;;10.98;5.05;;;14.30;99.90;;;;;;4940541;28;20501;-81
2023/10/06 04:55:13;;;;;;;11.50;4.70;;;14.30;99.90;;;;;;4962726;28;20082;-82
2023/10/06 04:57:43;;;;;;;10.77;4.78;;;14.30;99.90;;;;;;4992970;28;20133;-81
2023/10/06 05:00:22;;;;;;;11.88;4.43;;;14.30;99.90;;;;;;4956923;28;20177;-80
2023/10/06 05:02:50;;;;;;;10.60;4.53;;;14.30;99.90;;;;;;4957514;28;20043;-80
2023/10/06 05:05:22;;;;;;;12.52;4.40;;;14.30;99.90;;;;;;4994685;28;20047;-80
2023/10/06 05:07:49;;;;;;;12.23;4.55;;;14.30;99.90;;;;;;4976705;28;20122;-80
2023/10/06 05:10:18;;;;;;;11.02;4.72;;;14.30;99.90;;;;;;4963020;28;20464;-80
2023/10/06 05:12:44;;;;;;;9.93;4.50;;;14.30;99.90;;;;;;4960569;28;20047;-80
2023/10/06 05:15:14;;;;;;;12.20;4.75;;;14.30;99.90;;;;;;4961839;28;20103;-80
2023/10/06 05:17:40;;;;;;;10.27;3.83;;;14.30;99.90;;;;;;4955388;28;20042;-81
2023/10/06 05:20:13;;;;;;;9.45;4.25;;;14.40;99.90;;;;;;4945267;29;20557;-81
2023/10/06 05:22:40;;;;;;;11.13;3.97;;;14.40;99.90;;;;;;4946307;29;20168;-81
2023/10/06 05:25:13;;;;;;;11.63;4.15;;;14.30;99.90;;;;;;4960490;28;20186;-80
2023/10/06 05:27:38;;;;;;;10.18;4.18;;;14.10;99.90;;;;;;4956018;28;20113;-81
2023/10/06 05:30:06;;;;;;;8.90;3.85;;;14.40;99.90;;;;;;4993560;28;20043;-81
2023/10/06 05:32:32;;;;;;;10.38;3.70;;;14.30;99.90;;;;;;4946289;29;20043;-81
2023/10/06 05:34:58;;;;;;;9.48;4.03;;;14.30;99.90;;;;;;4943886;28;20035;-80
2023/10/06 05:37:24;;;;;;;10.57;4.10;;;14.30;99.90;;;;;;4943962;28;20042;-80
2023/10/06 05:39:49;;;;;;;9.60;4.10;;;14.30;99.90;;;;;;4961606;28;20043;-81
2023/10/06 05:42:15;;;;;;;11.07;4.07;;;14.30;99.90;;;;;;4961811;28;20032;-80
2023/10/06 05:44:41;;;;;;;11.15;4.20;;;14.30;99.90;;;;;;4961736;28;20091;-81
2023/10/06 05:47:09;;;;;;;11.02;4.22;;;14.30;99.90;;;;;;4961219;28;20047;-81
2023/10/06 05:49:38;;;;;;;11.07;4.57;;;14.20;99.90;;;;;;4994676;28;20039;-81
2023/10/06 05:52:10;;;;;;;11.48;4.03;;;14.30;99.90;;;;;;4961823;28;20047;-80
2023/10/06 05:54:37;;;;;;;10.13;3.80;;;14.30;99.90;;;;;;4976640;28;20106;-81
2023/10/06 05:57:04;;;;;;;8.90;3.72;;;14.20;99.90;;;;;;4962227;28;20287;-80
2023/10/06 05:59:33;;;;;;;11.43;4.05;;;14.20;99.90;;;;;;4959262;28;20043;-80
2023/10/06 06:02:02;;;;;;;12.30;4.40;;;14.20;99.90;;;;;;4978637;28;20508;-80
2023/10/06 06:04:28;;;;;;;10.35;4.00;;;14.20;99.90;;;;;;4960589;28;20053;-80
2023/10/06 06:07:02;;;;;;;10.35;4.20;;;14.20;99.90;;;;;;4962656;28;20043;-80
2023/10/06 06:09:30;;;;;;;10.63;3.90;;;14.20;99.90;;;;;;4954554;28;20589;-81
2023/10/06 06:11:59;;;;;;;10.38;3.92;;;14.20;99.90;;;;;;4975327;28;20049;-81
2023/10/06 06:14:25;;;;;;;11.57;4.15;;;14.30;99.90;;;;;;4942451;28;20050;-81
2023/10/06 06:16:52;;;;;;;11.63;4.20;;;14.30;99.90;;;;;;4960563;28;20043;-81
2023/10/06 06:19:20;;;;;;;9.80;4.20;;;14.30;99.90;;;;;;4958683;28;20516;-81
2023/10/06 06:21:46;;;;;;;9.95;4.00;;;14.30;99.90;;;;;;4947600;29;20052;-81
2023/10/06 06:24:12;;;;;;;11.43;4.40;;;15.50;99.90;;;;;;4974837;28;20106;-80
2023/10/06 06:26:38;;;;;;;10.02;3.80;;;14.30;99.90;;;;;;4970797;28;20051;-81
2023/10/06 06:29:11;;;;;;;9.90;4.00;;;14.30;99.90;;;;;;4972933;28;20137;-81
2023/10/06 06:31:37;;;;;;;9.55;3.95;;;14.40;99.90;;;;;;4974074;28;20100;-81
2023/10/06 06:34:04;;;;;;;9.27;3.85;;;14.40;99.90;;;;;;4975264;28;20047;-81
2023/10/06 06:36:33;;;;;;;9.63;4.40;;;14.50;99.90;;;;;;4943577;28;20046;-81
2023/10/06 06:39:00;;;;;;;10.65;4.20;;;14.50;99.90;;;;;;4960915;28;20070;-81
2023/10/06 06:41:26;;;;;;;12.10;4.43;;;14.50;99.90;;;;;;4944122;28;20117;-81
2023/10/06 06:43:58;;;;;;;11.38;4.07;;;14.50;99.90;;;;;;4976053;28;20708;-81
2023/10/06 06:46:29;;;;;;;11.03;3.97;;;14.60;99.90;;;;;;4957192;28;20062;-81
2023/10/06 06:48:56;;;;;;;9.45;3.75;;;14.60;99.90;;;;;;4958937;28;20454;-81
2023/10/06 06:51:30;;;;;;;13.10;3.80;;;14.60;99.90;;;;;;4961658;28;20043;-82
2023/10/06 06:53:56;;;;;;;10.23;3.70;;;14.60;99.90;;;;;;4979788;28;20082;-81
2023/10/06 06:56:28;;;;;;;12.02;4.05;;;14.60;99.90;;;;;;4996527;28;20474;-81
2023/10/06 06:59:01;;;;;;;10.02;3.55;;;14.60;99.90;;;;;;4964614;28;20524;-81
2023/10/06 07:01:27;;;;;;;11.80;4.22;;;14.60;99.90;;;;;;4980059;28;20518;-81
2023/10/06 07:03:53;;;;;;;10.77;3.88;;;14.60;99.90;;;;;;4980519;28;20569;-82
2023/10/06 07:06:20;;;;;;;10.60;3.80;;;14.70;99.90;;;;;;4964212;28;20134;-81
2023/10/06 07:08:49;;;;;;;11.05;4.35;;;14.70;99.90;;;;;;4947335;28;20553;-81
2023/10/06 07:11:15;;;;;;;11.35;4.15;;;14.70;99.90;;;;;;4977786;28;20058;-81
2023/10/06 07:13:42;;;;;;;12.63;3.83;;;14.70;99.90;;;;;;4978096;28;20051;-81
2023/10/06 07:16:09;;;;;;;10.82;3.83;;;14.80;99.90;;;;;;4965020;28;20114;-81
2023/10/06 07:18:36;;;;;;;12.10;4.20;;;14.80;99.90;;;;;;4980115;28;20404;-81
2023/10/06 07:21:10;;;;;;;10.95;4.07;;;14.90;99.90;;;;;;4963037;28;20043;-81
2023/10/06 07:23:39;;;;;;;9.45;3.60;;;14.90;99.90;;;;;;4977422;28;20283;-82
2023/10/06 07:26:12;;;;;;;11.07;4.63;;;14.90;99.90;;;;;;4977971;28;20039;-81
2023/10/06 07:28:42;;;;;;;10.00;4.00;;;14.90;99.90;;;;;;4963757;28;20102;-82
2023/10/06 07:31:10;;;;;;;11.20;4.30;;;14.90;99.90;;;;;;4995580;28;20074;-81
2023/10/06 07:33:37;;;;;;;9.20;4.00;;;13.80;99.90;;;;;;4977279;28;20067;-81
2023/10/06 07:36:12;;;;;;;9.60;3.97;;;14.90;99.90;;;;;;4961513;28;20061;-81
2023/10/06 07:38:38;;;;;;;10.85;4.13;;;14.90;99.90;;;;;;4948598;28;20043;-81
2023/10/06 07:41:05;;;;;;;9.90;3.80;;;15.00;99.90;;;;;;4963529;28;20035;-81
2023/10/06 07:43:31;;;;;;;10.77;4.20;;;15.00;99.90;;;;;;4994271;28;20492;-82
2023/10/06 07:46:01;;;;;;;10.15;4.05;;;15.10;99.90;;;;;;4960022;28;20074;-82
2023/10/06 07:48:26;;;;;;;10.95;4.38;;;15.10;99.90;;;;;;4977889;28;20054;-81
2023/10/06 07:50:53;;;;;;;9.25;3.97;;;15.10;99.90;;;;;;4962621;28;20047;-81
2023/10/06 07:53:19;;;;;;;10.05;4.40;;;15.20;99.90;;;;;;4956960;28;20118;-81
2023/10/06 07:55:44;;;;;;;13.20;4.57;;;15.20;99.90;;;;;;4960701;28;20035;-82
2023/10/06 07:58:10;;;;;;;11.80;4.53;;;15.10;99.90;;;;;;4961729;28;20045;-81
2023/10/06 08:00:38;;;;;;;10.80;4.50;;;15.10;99.90;;;;;;4974707;28;20209;-81
2023/10/06 08:03:04;;;;;;;12.45;4.68;;;15.10;99.90;;;;;;4992200;28;20043;-82
2023/10/06 08:05:31;;;;;;;9.73;4.30;;;15.10;99.90;;;;;;4976551;28;20473;-82
2023/10/06 08:08:00;;;;;;;10.65;4.95;;;15.10;99.90;;;;;;4976211;28;20664;-81
2023/10/06 08:10:27;;;;;;;14.98;5.00;;;15.10;99.90;;;;;;4978248;28;20058;-81
2023/10/06 08:12:56;;;;;;;12.07;4.65;;;15.10;99.90;;;;;;4962777;28;20397;-81
2023/10/06 08:15:22;;;;;;;10.20;4.30;;;15.10;99.90;;;;;;4996363;28;20067;-81
2023/10/06 08:17:50;;;;;;;11.65;4.70;;;15.20;99.90;;;;;;4945051;28;20122;-81
2023/10/06 08:20:17;;;;;;;10.95;4.43;;;15.20;99.90;;;;;;4931899;29;20504;-82
2023/10/06 08:22:47;;;;;;;10.82;4.68;;;15.20;99.90;;;;;;4976035;28;20468;-81
2023/10/06 08:25:14;;;;;;;10.15;4.57;;;15.30;99.90;;;;;;4993263;28;21201;-81
2023/10/06 08:27:44;;;;;;;11.20;4.70;;;15.30;99.90;;;;;;4982286;28;20412;-81
2023/10/06 08:30:16;;;;;;;12.43;4.95;;;15.40;99.90;;;;;;4979331;28;20401;-82
2023/10/06 08:32:45;;;;;;;14.70;5.07;;;15.40;99.90;;;;;;4959777;28;20035;-83
2023/10/06 08:35:13;;;;;;;10.60;4.82;;;15.50;99.90;;;;;;4961038;28;20035;-82
2023/10/06 08:37:46;;;;;;;11.40;4.78;;;15.50;99.90;;;;;;4975302;28;20054;-81
2023/10/06 08:40:17;;;;;;;11.40;4.40;;;15.60;99.90;;;;;;4945775;28;20046;-81
2023/10/06 08:42:53;;;;;;;11.55;4.55;;;15.60;99.90;;;;;;4931718;28;20043;-81
2023/10/06 08:45:27;;;;;;;11.45;4.35;;;15.60;99.90;;;;;;4994239;28;20063;-81
2023/10/06 08:48:01;;;;;;;11.25;4.80;;;15.60;99.90;;;;;;4978027;28;20137;-82
2023/10/06 08:50:27;;;;;;;11.25;4.72;;;15.70;99.90;;;;;;4975417;28;20043;-81
2023/10/06 08:52:55;;;;;;;16.15;5.40;;;15.70;99.90;;;;;;4975574;28;20035;-82
2023/10/06 08:55:22;;;;;;;10.88;4.97;;;15.80;99.90;;;;;;4977360;28;20031;-82
2023/10/06 08:57:50;;;;;;;10.23;4.55;;;15.80;99.90;;;;;;4945931;28;20046;-81
2023/10/06 09:00:26;;;;;;;13.18;5.20;;;15.90;99.90;;;;;;4962061;28;20064;-82
2023/10/06 09:02:54;;;;;;;12.13;4.35;;;16.00;99.90;;;;;;4959848;28;20034;-83
2023/10/06 09:05:21;;;;;;;12.32;4.90;;;16.00;99.90;;;;;;4941314;28;20047;-82
2023/10/06 09:08:05;;;;;;;11.82;4.50;;;16.00;99.90;;;;;;4977233;28;20062;-81
2023/10/06 09:10:32;;;;;;;12.38;4.03;;;16.10;99.90;;;;;;4957153;28;20487;-81
2023/10/06 09:13:17;;;;;;;11.82;4.55;;;16.10;99.90;;;;;;4975311;28;20043;-81
2023/10/06 09:15:54;;;;;;;10.25;4.40;;;16.30;99.90;;;;;;4958260;28;20370;-81
2023/10/06 09:18:21;;;;;;;9.88;4.25;;;16.30;99.90;;;;;;4974196;28;20122;-81
2023/10/06 09:20:48;;;;;;;11.10;4.25;;;16.40;99.90;;;;;;4979479;28;20031;-81
2023/10/06 09:23:32;;;;;;;11.13;4.43;;;16.50;99.90;;;;;;4962175;28;20043;-81
2023/10/06 09:25:59;;;;;;;11.98;4.50;;;16.50;99.90;;;;;;4975560;28;20050;-81
2023/10/06 09:28:26;;;;;;;9.93;4.07;;;16.60;99.90;;;;;;4997110;28;20504;-82
2023/10/06 09:31:05;;;;;;;10.45;3.63;;;16.60;99.90;;;;;;4964373;28;20038;-80
2023/10/06 09:33:31;;;;;;;11.20;5.05;;;16.60;99.90;;;;;;4942941;28;20043;-80
2023/10/06 09:36:01;;;;;;;10.43;4.10;;;16.60;99.90;;;;;;4978873;28;20067;-81
2023/10/06 09:38:27;;;;;;;9.93;3.80;;;16.60;99.90;;;;;;4962736;28;20040;-81
2023/10/06 09:40:52;;;;;;;11.23;4.13;;;16.60;99.90;;;;;;4960135;28;20054;-81
2023/10/06 09:43:19;;;;;;;10.77;3.80;;;16.60;99.90;;;;;;4994773;28;20043;-82
2023/10/06 09:45:50;;;;;;;9.07;4.13;;;16.60;99.90;;;;;;4959327;28;20428;-81
2023/10/06 09:48:22;;;;;;;13.38;4.30;;;16.60;99.90;;;;;;4973244;28;20118;-82
2023/10/06 09:50:50;;;;;;;11.47;3.73;;;16.70;99.90;;;;;;4978613;28;20048;-81
2023/10/06 09:53:19;;;;;;;10.45;3.47;;;16.80;99.90;;;;;;4991178;28;20134;-82
2023/10/06 09:55:49;;;;;;;11.35;3.70;;;17.00;99.90;;;;;;4978462;28;20040;-81
2023/10/06 09:58:19;;;;;;;12.15;3.75;;;17.10;99.90;;;;;;4964663;28;20043;-82
2023/10/06 10:00:45;;;;;;;10.90;3.72;;;17.20;99.90;;;;;;4959423;28;20047;-82
2023/10/06 10:03:13;;;;;;;10.25;3.60;;;17.20;99.90;;;;;;4961949;28;21624;-81
2023/10/06 10:05:39;;;;;;;9.55;2.88;;;17.30;99.90;;;;;;4975965;28;20090;-81
2023/10/06 10:08:06;;;;;;;11.25;3.47;;;17.30;99.90;;;;;;4958779;28;20050;-81
2023/10/06 10:10:35;;;;;;;10.23;3.60;;;17.30;99.90;;;;;;4994225;28;20043;-82
2023/10/06 10:13:07;;;;;;;12.45;3.90;;;17.40;99.90;;;;;;4961812;28;20051;-83
2023/10/06 10:15:42;;;;;;;12.15;3.40;;;17.50;99.90;;;;;;4946347;28;20405;-82
2023/10/06 10:18:21;;;;;;;9.85;3.25;;;17.50;99.90;;;;;;4961163;28;20107;-82
2023/10/06 10:20:48;;;;;;;13.85;3.95;;;17.60;99.90;;;;;;4977654;28;20489;-83
2023/10/06 10:23:15;;;;;;;10.73;3.17;;;17.60;99.90;;;;;;4945767;28;20282;-81
2023/10/06 10:25:41;;;;;;;10.95;3.20;;;17.60;99.90;;;;;;4997757;28;20514;-81
2023/10/06 10:28:19;;;;;;;12.25;3.40;;;17.70;99.90;;;;;;4981895;28;20131;-82
2023/10/06 10:30:59;;;;;;;10.02;3.17;;;17.80;99.90;;;;;;4983301;28;20535;-82
2023/10/06 10:33:37;;;;;;;11.02;3.30;;;17.90;99.90;;;;;;4980223;28;20045;-82
2023/10/06 10:36:15;;;;;;;12.27;3.42;;;17.90;99.90;;;;;;4964092;28;20047;-82
2023/10/06 10:38:42;;;;;;;8.60;3.00;;;18.00;99.90;;;;;;4948082;28;20085;-83
2023/10/06 10:41:09;;;;;;;11.07;3.80;;;18.00;99.90;;;;;;4947043;28;20043;-82
2023/10/06 10:43:43;;;;;;;8.20;3.00;;;18.00;99.90;;;;;;4948575;28;20053;-84
2023/10/06 10:46:08;;;;;;;12.40;3.38;;;18.00;99.90;;;;;;4974582;28;20113;-82
2023/10/06 10:48:47;;;;;;;11.13;3.28;;;18.10;99.90;;;;;;4977662;28;20537;-83
2023/10/06 10:51:14;;;;;;;10.90;3.45;;;18.10;99.90;;;;;;4948183;28;20053;-83
2023/10/06 10:53:46;;;;;;;10.35;3.53;;;18.00;99.90;;;;;;4975428;28;20074;-82
2023/10/06 10:56:36;;;;;;;9.80;3.53;;;18.00;99.90;;;;;;4978258;28;20055;-83
2023/10/06 10:59:03;;;;;;;8.85;3.10;;;18.00;99.90;;;;;;4977211;28;20039;-83
2023/10/06 11:01:31;;;;;;;11.10;3.22;;;18.10;99.90;;;;;;4990362;28;20070;-83
2023/10/06 11:04:09;;;;;;;12.35;3.35;;;18.10;99.90;;;;;;4992029;28;20043;-83
2023/10/06 11:06:39;;;;;;;10.50;3.40;;;18.20;99.90;;;;;;4990307;28;20071;-83
2023/10/06 11:09:22;;;;;;;12.02;3.25;;;18.20;99.90;;;;;;4959223;28;20043;-82
2023/10/06 11:11:48;;;;;;;10.10;3.22;;;18.30;99.90;;;;;;4962482;28;20054;-82
2023/10/06 11:14:14;;;;;;;10.23;3.03;;;18.30;99.90;;;;;;4976671;28;20043;-82
2023/10/06 11:16:46;;;;;;;10.40;3.10;;;18.40;99.90;;;;;;4978789;28;20872;-82
2023/10/06 11:19:16;;;;;;;12.50;3.45;;;18.50;99.90;;;;;;4946409;29;20074;-82
2023/10/06 11:21:48;;;;;;;9.65;2.90;;;18.60;99.90;;;;;;4979635;28;20062;-83
2023/10/06 11:24:25;;;;;;;10.95;3.35;;;18.70;99.90;;;;;;4959243;28;20039;-83
2023/10/06 11:26:51;;;;;;;9.73;2.80;;;18.70;99.90;;;;;;4979106;28;20043;-82
2023/10/06 11:29:30;;;;;;;10.43;3.10;;;18.80;99.90;;;;;;4977680;28;20390;-82
2023/10/06 11:31:59;;;;;;;9.30;2.85;;;18.80;99.90;;;;;;4980864;28;20122;-83
2023/10/06 11:34:25;;;;;;;10.48;3.05;;;18.80;99.90;;;;;;4994083;28;20201;-82
2023/10/06 11:36:57;;;;;;;11.10;3.00;;;18.70;99.90;;;;;;4944576;28;20121;-83
2023/10/06 11:39:27;;;;;;;11.45;3.10;;;18.80;99.90;;;;;;4978274;28;20039;-83
2023/10/06 11:41:55;;;;;;;9.40;2.70;;;18.90;99.90;;;;;;4979752;28;20034;-83
2023/10/06 11:44:21;;;;;;;10.18;2.95;;;18.90;99.90;;;;;;4961315;28;20059;-82
2023/10/06 11:46:52;;;;;;;9.00;2.80;;;18.80;99.90;;;;;;4964586;28;20047;-83
2023/10/06 11:49:20;;;;;;;11.82;3.25;;;18.80;99.90;;;;;;4976098;28;20047;-84
2023/10/06 11:51:46;;;;;;;12.93;3.88;;;18.80;99.90;;;;;;4945892;28;20046;-84
2023/10/06 11:54:12;;;;;;;8.50;2.83;;;18.80;99.90;;;;;;4932203;29;20035;-85
2023/10/06 11:56:49;;;;;;;11.52;3.17;;;18.60;99.90;;;;;;4977481;28;20485;-85
2023/10/06 11:59:22;;;;;;;11.82;3.00;;;18.90;99.90;;;;;;4976593;28;20043;-84
2023/10/06 12:01:48;;;;;;;11.20;3.00;;;18.90;99.90;;;;;;4945718;29;20569;-84
2023/10/06 12:04:31;;;;;;;12.55;3.38;;;19.00;99.90;;;;;;4979206;28;20035;-84
2023/10/06 12:07:00;;;;;;;9.30;2.80;;;19.10;99.90;;;;;;4977595;28;20047;-83
2023/10/06 12:09:30;;;;;;;8.80;2.97;;;19.20;99.90;;;;;;4980795;28;20085;-81
2023/10/06 12:11:59;;;;;;;10.23;2.65;;;19.40;99.90;;;;;;4962298;28;20054;-83
2023/10/06 12:14:26;;;;;;;12.85;3.17;;;19.40;99.90;;;;;;4995631;28;20040;-84
2023/10/06 12:16:54;;;;;;;12.45;3.40;;;19.40;99.90;;;;;;4994460;28;20384;-86
2023/10/06 12:19:21;;;;;;;7.95;2.50;;;19.40;99.90;;;;;;4960706;28;20119;-85
2023/10/06 12:21:47;;;;;;;13.07;3.00;;;19.50;99.90;;;;;;4944449;28;20409;-85
2023/10/06 12:24:13;;;;;;;9.95;2.70;;;19.60;99.90;;;;;;4974899;28;20039;-83
2023/10/06 12:26:39;;;;;;;9.48;2.75;;;19.70;99.90;;;;;;4960110;28;20046;-84
2023/10/06 12:29:06;;;;;;;14.23;3.40;;;19.70;99.90;;;;;;4976517;28;20051;-84
2023/10/06 12:31:32;;;;;;;8.10;2.50;;;19.80;99.90;;;;;;4945128;28;20403;-82
2023/10/06 12:34:03;;;;;;;8.80;2.50;;;19.80;99.90;;;;;;4944187;28;20071;-83
2023/10/06 12:36:34;;;;;;;10.32;2.63;;;19.80;99.90;;;;;;4975566;28;20058;-83
2023/10/06 12:39:00;;;;;;;9.63;2.78;;;19.80;99.90;;;;;;4975287;28;20080;-83
2023/10/06 12:41:26;;;;;;;9.07;2.40;;;19.80;99.90;;;;;;4978175;28;20071;-83
2023/10/06 12:43:52;;;;;;;9.15;2.70;;;19.80;99.90;;;;;;4977556;28;20049;-82
2023/10/06 12:46:19;;;;;;;8.40;2.22;;;19.80;99.90;;;;;;4977394;28;20050;-82
2023/10/06 12:48:46;;;;;;;12.50;2.88;;;19.80;99.90;;;;;;4946123;28;20066;-82
2023/10/06 12:51:13;;;;;;;9.73;2.65;;;19.70;99.90;;;;;;4947927;28;20521;-83
2023/10/06 12:53:42;;;;;;;10.15;2.85;;;19.50;99.90;;;;;;4977833;28;20076;-82
2023/10/06 12:56:09;;;;;;;9.45;2.45;;;19.40;99.90;;;;;;4978661;28;20480;-83
2023/10/06 12:58:35;;;;;;;8.02;2.28;;;19.30;99.90;;;;;;4976070;28;20043;-84
2023/10/06 13:01:00;;;;;;;10.52;2.70;;;19.20;99.90;;;;;;4959479;28;20050;-83
2023/10/06 13:03:27;;;;;;;9.68;2.78;;;19.10;99.90;;;;;;4992848;28;20035;-82
2023/10/06 13:05:52;;;;;;;8.70;2.28;;;19.10;99.90;;;;;;4960411;28;20428;-83